sensor_id;sensor_type;location;lat;lon;timestamp;pressure;altitude;pressure_sealevel;temperature;humidity
23223;BME280;11780;13.904;100.620;2023-08-17T00:00:25;100831.06;;;32.11;58.99
23223;BME280;11780;13.904;100.620;2023-08-17T00:02:55;100834.78;;;32.15;59.21
23223;BME280;11780;13.904;100.620;2023-08-17T00:05:25;100840.31;;;32.15;59.27
23223;BME280;11780;13.904;100.620;2023-08-17T00:07:56;100840.31;;;32.15;58.98
23223;BME280;11780;13.904;100.620;2023-08-17T00:10:26;100846.34;;;32.17;59.06
23223;BME280;11780;13.904;100.620;2023-08-17T00:12:57;100846.00;;;32.18;58.81
23223;BME280;11780;13.904;100.620;2023-08-17T00:15:28;100849.91;;;32.17;59.25
23223;BME280;11780;13.904;100.620;2023-08-17T00:17:58;100851.53;;;32.18;58.99
23223;BME280;11780;13.904;100.620;2023-08-17T00:20:28;100860.03;;;32.13;59.62
23223;BME280;11780;13.904;100.620;2023-08-17T00:22:59;100853.03;;;32.16;59.68
23223;BME280;11780;13.904;100.620;2023-08-17T00:25:29;100858.88;;;32.23;59.28
23223;BME280;11780;13.904;100.620;2023-08-17T00:28:00;100852.38;;;32.19;59.03
23223;BME280;11780;13.904;100.620;2023-08-17T00:30:31;100864.25;;;32.19;59.22
23223;BME280;11780;13.904;100.620;2023-08-17T00:33:05;100858.88;;;32.23;59.26
23223;BME280;11780;13.904;100.620;2023-08-17T00:35:36;100865.88;;;32.20;59.17
23223;BME280;11780;13.904;100.620;2023-08-17T00:38:07;100866.69;;;32.21;59.38
23223;BME280;11780;13.904;100.620;2023-08-17T00:40:38;100882.63;;;32.24;58.97
23223;BME280;11780;13.904;100.620;2023-08-17T00:43:08;100884.94;;;32.22;59.13
23223;BME280;11780;13.904;100.620;2023-08-17T00:45:40;100881.31;;;32.22;59.40
23223;BME280;11780;13.904;100.620;2023-08-17T00:48:10;100882.47;;;32.20;59.36
23223;BME280;11780;13.904;100.620;2023-08-17T00:50:41;100885.91;;;32.26;59.00
23223;BME280;11780;13.904;100.620;2023-08-17T00:53:14;100879.38;;;32.22;59.38
23223;BME280;11780;13.904;100.620;2023-08-17T00:55:46;100880.19;;;32.23;59.39
23223;BME280;11780;13.904;100.620;2023-08-17T00:58:16;100881.19;;;32.27;58.97
23223;BME280;11780;13.904;100.620;2023-08-17T01:00:47;100887.53;;;32.27;58.88
23223;BME280;11780;13.904;100.620;2023-08-17T01:03:18;100895.31;;;32.25;59.14
23223;BME280;11780;13.904;100.620;2023-08-17T01:05:51;100889.16;;;32.28;59.14
23223;BME280;11780;13.904;100.620;2023-08-17T01:08:21;100897.94;;;32.30;59.34
23223;BME280;11780;13.904;100.620;2023-08-17T01:10:57;100896.16;;;32.26;59.22
23223;BME280;11780;13.904;100.620;2023-08-17T01:14:18;100899.44;;;32.28;59.06
23223;BME280;11780;13.904;100.620;2023-08-17T01:17:10;100897.94;;;32.22;59.33
23223;BME280;11780;13.904;100.620;2023-08-17T01:19:43;100901.84;;;32.20;59.00
23223;BME280;11780;13.904;100.620;2023-08-17T01:22:17;100896.00;;;32.22;58.68
23223;BME280;11780;13.904;100.620;2023-08-17T01:24:55;100910.28;;;32.24;58.74
23223;BME280;11780;13.904;100.620;2023-08-17T01:27:41;100901.84;;;32.20;58.91
23223;BME280;11780;13.904;100.620;2023-08-17T01:30:14;100899.41;;;32.19;58.49
23223;BME280;11780;13.904;100.620;2023-08-17T01:38:18;100903.63;;;32.25;58.48
23223;BME280;11780;13.904;100.620;2023-08-17T01:40:50;100898.75;;;32.22;58.80
23223;BME280;11780;13.904;100.620;2023-08-17T01:43:23;100909.03;;;32.30;58.79
23223;BME280;11780;13.904;100.620;2023-08-17T01:45:54;100910.97;;;32.21;58.55
23223;BME280;11780;13.904;100.620;2023-08-17T01:48:26;100906.22;;;32.22;59.05
23223;BME280;11780;13.904;100.620;2023-08-17T01:50:56;100911.28;;;32.28;58.69
23223;BME280;11780;13.904;100.620;2023-08-17T01:53:27;100905.94;;;32.23;58.88
23223;BME280;11780;13.904;100.620;2023-08-17T01:55:58;100913.41;;;32.23;58.53
23223;BME280;11780;13.904;100.620;2023-08-17T01:58:28;100909.00;;;32.22;58.38
23223;BME280;11780;13.904;100.620;2023-08-17T02:00:59;100912.59;;;32.22;58.19
23223;BME280;11780;13.904;100.620;2023-08-17T02:03:29;100911.78;;;32.22;58.25
23223;BME280;11780;13.904;100.620;2023-08-17T02:06:00;100910.00;;;32.26;58.25
23223;BME280;11780;13.904;100.620;2023-08-17T02:08:33;100914.22;;;32.23;57.84
23223;BME280;11780;13.904;100.620;2023-08-17T02:11:05;100912.13;;;32.29;58.05
23223;BME280;11780;13.904;100.620;2023-08-17T02:13:35;100911.13;;;32.25;58.41
23223;BME280;11780;13.904;100.620;2023-08-17T02:16:07;100916.84;;;32.28;57.66
23223;BME280;11780;13.904;100.620;2023-08-17T02:18:37;100909.16;;;32.34;58.00
23223;BME280;11780;13.904;100.620;2023-08-17T02:21:07;100921.72;;;32.31;58.16
23223;BME280;11780;13.904;100.620;2023-08-17T02:23:39;100924.31;;;32.37;58.06
23223;BME280;11780;13.904;100.620;2023-08-17T02:26:10;100924.97;;;32.33;58.00
23223;BME280;11780;13.904;100.620;2023-08-17T02:28:40;100916.53;;;32.30;58.04
23223;BME280;11780;13.904;100.620;2023-08-17T02:31:10;100921.88;;;32.35;58.22
23223;BME280;11780;13.904;100.620;2023-08-17T02:33:41;100924.63;;;32.35;58.30
23223;BME280;11780;13.904;100.620;2023-08-17T02:36:11;100919.09;;;32.35;58.44
23223;BME280;11780;13.904;100.620;2023-08-17T02:38:42;100922.03;;;32.39;57.92
23223;BME280;11780;13.904;100.620;2023-08-17T02:41:12;100922.97;;;32.43;57.94
23223;BME280;11780;13.904;100.620;2023-08-17T02:43:42;100921.69;;;32.40;58.13
23223;BME280;11780;13.904;100.620;2023-08-17T02:46:14;100921.88;;;32.35;57.79
23223;BME280;11780;13.904;100.620;2023-08-17T02:48:45;100914.19;;;32.41;57.95
23223;BME280;11780;13.904;100.620;2023-08-17T02:51:17;100926.88;;;32.42;57.44
23223;BME280;11780;13.904;100.620;2023-08-17T02:53:48;100921.22;;;32.38;57.82
23223;BME280;11780;13.904;100.620;2023-08-17T02:56:18;100916.97;;;32.32;57.37
23223;BME280;11780;13.904;100.620;2023-08-17T02:58:48;100913.56;;;32.35;57.22
23223;BME280;11780;13.904;100.620;2023-08-17T03:01:19;100917.78;;;32.41;56.96
23223;BME280;11780;13.904;100.620;2023-08-17T03:03:49;100916.16;;;32.40;57.10
23223;BME280;11780;13.904;100.620;2023-08-17T03:06:20;100920.56;;;32.41;57.20
23223;BME280;11780;13.904;100.620;2023-08-17T03:08:50;100913.72;;;32.39;57.28
23223;BME280;11780;13.904;100.620;2023-08-17T03:11:22;100910.75;;;32.44;57.14
23223;BME280;11780;13.904;100.620;2023-08-17T03:13:52;100907.50;;;32.42;57.31
23223;BME280;11780;13.904;100.620;2023-08-17T03:16:30;100910.00;;;32.34;56.65
23223;BME280;11780;13.904;100.620;2023-08-17T03:19:00;100915.81;;;32.42;56.74
23223;BME280;11780;13.904;100.620;2023-08-17T03:21:32;100920.06;;;32.39;56.97
23223;BME280;11780;13.904;100.620;2023-08-17T03:24:02;100915.81;;;32.42;57.20
23223;BME280;11780;13.904;100.620;2023-08-17T03:26:33;100909.31;;;32.46;56.58
23223;BME280;11780;13.904;100.620;2023-08-17T03:29:03;100916.13;;;32.49;56.62
23223;BME280;11780;13.904;100.620;2023-08-17T03:31:34;100912.53;;;32.48;56.76
23223;BME280;11780;13.904;100.620;2023-08-17T03:34:07;100915.66;;;32.47;56.72
23223;BME280;11780;13.904;100.620;2023-08-17T03:36:37;100914.00;;;32.46;56.30
23223;BME280;11780;13.904;100.620;2023-08-17T03:39:08;100916.13;;;32.49;56.29
23223;BME280;11780;13.904;100.620;2023-08-17T03:41:39;100909.75;;;32.48;56.26
23223;BME280;11780;13.904;100.620;2023-08-17T03:44:09;100903.56;;;32.52;56.41
23223;BME280;11780;13.904;100.620;2023-08-17T03:46:40;100909.75;;;32.48;56.38
23223;BME280;11780;13.904;100.620;2023-08-17T03:49:10;100899.19;;;32.42;56.72
23223;BME280;11780;13.904;100.620;2023-08-17T03:51:41;100911.75;;;32.39;56.48
23223;BME280;11780;13.904;100.620;2023-08-17T03:54:12;100914.34;;;32.44;57.18
23223;BME280;11780;13.904;100.620;2023-08-17T03:56:43;100903.13;;;32.41;56.78
23223;BME280;11780;13.904;100.620;2023-08-17T03:59:14;100909.59;;;32.54;56.71
23223;BME280;11780;13.904;100.620;2023-08-17T04:01:44;100905.34;;;32.56;56.93
23223;BME280;11780;13.904;100.620;2023-08-17T04:04:14;100904.22;;;32.48;56.76
23223;BME280;11780;13.904;100.620;2023-08-17T04:06:45;100896.72;;;32.58;56.81
23223;BME280;11780;13.904;100.620;2023-08-17T04:09:15;100894.94;;;32.53;56.88
23223;BME280;11780;13.904;100.620;2023-08-17T04:11:46;100902.13;;;32.54;56.84
23223;BME280;11780;13.904;100.620;2023-08-17T04:14:16;100885.78;;;32.61;56.54
23223;BME280;11780;13.904;100.620;2023-08-17T04:16:47;100896.84;;;32.61;56.62
23223;BME280;11780;13.904;100.620;2023-08-17T04:19:18;100893.44;;;32.64;56.37
23223;BME280;11780;13.904;100.620;2023-08-17T04:21:49;100894.56;;;32.63;56.21
23223;BME280;11780;13.904;100.620;2023-08-17T04:24:19;100892.31;;;32.57;56.21
23223;BME280;11780;13.904;100.620;2023-08-17T04:26:49;100892.81;;;32.59;56.14
23223;BME280;11780;13.904;100.620;2023-08-17T04:29:20;100884.28;;;32.64;55.90
23223;BME280;11780;13.904;100.620;2023-08-17T04:31:51;100891.31;;;32.61;56.38
23223;BME280;11780;13.904;100.620;2023-08-17T04:34:21;100891.47;;;32.65;56.06
23223;BME280;11780;13.904;100.620;2023-08-17T04:36:52;100877.59;;;32.65;56.23
23223;BME280;11780;13.904;100.620;2023-08-17T04:39:22;100880.25;;;32.61;55.86
23223;BME280;11780;13.904;100.620;2023-08-17T04:41:53;100878.09;;;32.67;56.43
23223;BME280;11780;13.904;100.620;2023-08-17T04:44:29;100871.94;;;32.61;55.97
23223;BME280;11780;13.904;100.620;2023-08-17T04:47:01;100874.34;;;32.63;56.31
23223;BME280;11780;13.904;100.620;2023-08-17T04:49:32;100870.63;;;32.68;56.06
23223;BME280;11780;13.904;100.620;2023-08-17T04:52:03;100864.72;;;32.69;56.23
23223;BME280;11780;13.904;100.620;2023-08-17T04:54:34;100858.91;;;32.62;56.11
23223;BME280;11780;13.904;100.620;2023-08-17T04:57:05;100869.91;;;32.71;56.13
23223;BME280;11780;13.904;100.620;2023-08-17T04:59:35;100851.38;;;32.71;55.80
23223;BME280;11780;13.904;100.620;2023-08-17T05:02:06;100853.00;;;32.72;56.05
23223;BME280;11780;13.904;100.620;2023-08-17T05:04:38;100857.56;;;32.68;55.94
23223;BME280;11780;13.904;100.620;2023-08-17T05:07:09;100848.59;;;32.71;56.09
23223;BME280;11780;13.904;100.620;2023-08-17T05:09:40;100835.75;;;32.67;56.06
23223;BME280;11780;13.904;100.620;2023-08-17T05:12:11;100837.16;;;32.73;56.26
23223;BME280;11780;13.904;100.620;2023-08-17T05:14:41;100826.91;;;32.73;56.06
23223;BME280;11780;13.904;100.620;2023-08-17T05:17:13;100827.56;;;32.70;56.23
23223;BME280;11780;13.904;100.620;2023-08-17T05:19:43;100822.16;;;32.74;56.09
23223;BME280;11780;13.904;100.620;2023-08-17T05:22:14;100825.56;;;32.79;55.76
23223;BME280;11780;13.904;100.620;2023-08-17T05:24:45;100809.94;;;32.75;55.84
23223;BME280;11780;13.904;100.620;2023-08-17T05:27:15;100815.19;;;32.76;56.02
23223;BME280;11780;13.904;100.620;2023-08-17T05:29:48;100808.00;;;32.75;55.87
23223;BME280;11780;13.904;100.620;2023-08-17T05:32:18;100796.75;;;32.72;55.63
23223;BME280;11780;13.904;100.620;2023-08-17T05:34:50;100802.59;;;32.79;55.86
23223;BME280;11780;13.904;100.620;2023-08-17T05:37:20;100799.19;;;32.82;55.31
23223;BME280;11780;13.904;100.620;2023-08-17T05:39:51;100795.44;;;32.78;55.52
23223;BME280;11780;13.904;100.620;2023-08-17T05:42:22;100796.44;;;32.82;55.50
23223;BME280;11780;13.904;100.620;2023-08-17T05:44:52;100793.66;;;32.82;55.92
23223;BME280;11780;13.904;100.620;2023-08-17T05:47:22;100793.31;;;32.84;55.44
23223;BME280;11780;13.904;100.620;2023-08-17T05:49:53;100788.41;;;32.80;55.74
23223;BME280;11780;13.904;100.620;2023-08-17T05:52:23;100790.53;;;32.84;55.91
23223;BME280;11780;13.904;100.620;2023-08-17T05:54:54;100782.56;;;32.82;55.86
23223;BME280;11780;13.904;100.620;2023-08-17T05:57:24;100777.97;;;32.86;55.66
23223;BME280;11780;13.904;100.620;2023-08-17T05:59:55;100778.78;;;32.87;55.32
23223;BME280;11780;13.904;100.620;2023-08-17T06:02:25;100760.19;;;32.87;55.42
23223;BME280;11780;13.904;100.620;2023-08-17T06:04:56;100762.16;;;32.87;55.49
23223;BME280;11780;13.904;100.620;2023-08-17T06:07:26;100753.03;;;32.86;55.37
23223;BME280;11780;13.904;100.620;2023-08-17T06:09:56;100755.81;;;32.86;55.54
23223;BME280;11780;13.904;100.620;2023-08-17T06:12:27;100760.34;;;32.91;55.53
23223;BME280;11780;13.904;100.620;2023-08-17T06:14:57;100755.59;;;32.91;55.36
23223;BME280;11780;13.904;100.620;2023-08-17T06:17:27;100753.19;;;32.90;55.41
23223;BME280;11780;13.904;100.620;2023-08-17T06:19:58;100756.56;;;32.95;55.30
23223;BME280;11780;13.904;100.620;2023-08-17T06:22:28;100752.03;;;32.91;55.55
23223;BME280;11780;13.904;100.620;2023-08-17T06:24:59;100744.53;;;32.91;55.51
23223;BME280;11780;13.904;100.620;2023-08-17T06:27:29;100735.88;;;32.93;55.42
23223;BME280;11780;13.904;100.620;2023-08-17T06:29:59;100736.69;;;32.93;55.34
23223;BME280;11780;13.904;100.620;2023-08-17T06:32:32;100718.50;;;32.84;55.44
23223;BME280;11780;13.904;100.620;2023-08-17T06:35:03;100721.09;;;32.89;55.29
23223;BME280;11780;13.904;100.620;2023-08-17T06:37:33;100725.97;;;32.92;55.24
23223;BME280;11780;13.904;100.620;2023-08-17T06:40:04;100721.22;;;32.92;55.25
23223;BME280;11780;13.904;100.620;2023-08-17T06:42:36;100718.31;;;32.89;55.41
23223;BME280;11780;13.904;100.620;2023-08-17T06:45:08;100706.81;;;32.99;55.34
23223;BME280;11780;13.904;100.620;2023-08-17T06:47:38;100710.06;;;33.01;55.39
23223;BME280;11780;13.904;100.620;2023-08-17T06:50:09;100701.94;;;32.96;55.23
23223;BME280;11780;13.904;100.620;2023-08-17T06:52:39;100698.03;;;32.97;55.32
23223;BME280;11780;13.904;100.620;2023-08-17T06:55:10;100692.63;;;33.01;55.32
23223;BME280;11780;13.904;100.620;2023-08-17T06:57:41;100689.25;;;32.95;55.33
23223;BME280;11780;13.904;100.620;2023-08-17T07:00:11;100682.69;;;33.00;55.33
23223;BME280;11780;13.904;100.620;2023-08-17T07:02:42;100683.03;;;32.98;55.35
23223;BME280;11780;13.904;100.620;2023-08-17T07:05:21;100673.91;;;32.98;55.54
23223;BME280;11780;13.904;100.620;2023-08-17T07:07:52;100660.84;;;32.98;55.48
23223;BME280;11780;13.904;100.620;2023-08-17T07:10:23;100656.81;;;32.95;55.18
23223;BME280;11780;13.904;100.620;2023-08-17T07:12:53;100649.09;;;33.01;55.53
23223;BME280;11780;13.904;100.620;2023-08-17T07:15:23;100646.69;;;33.00;55.18
23223;BME280;11780;13.904;100.620;2023-08-17T07:17:53;100651.41;;;32.99;55.28
23223;BME280;11780;13.904;100.620;2023-08-17T07:20:24;100642.88;;;33.04;55.19
23223;BME280;11780;13.904;100.620;2023-08-17T07:22:55;100641.94;;;33.00;55.24
23223;BME280;11780;13.904;100.620;2023-08-17T07:25:25;100632.94;;;33.03;55.07
23223;BME280;11780;13.904;100.620;2023-08-17T07:27:55;100618.97;;;33.00;55.27
23223;BME280;11780;13.904;100.620;2023-08-17T07:30:26;100623.97;;;33.06;55.13
23223;BME280;11780;13.904;100.620;2023-08-17T07:32:56;100632.28;;;33.06;55.02
23223;BME280;11780;13.904;100.620;2023-08-17T07:35:26;100623.00;;;33.02;55.27
23223;BME280;11780;13.904;100.620;2023-08-17T07:37:57;100618.19;;;33.12;55.00
23223;BME280;11780;13.904;100.620;2023-08-17T07:40:36;100617.28;;;33.07;55.05
23223;BME280;11780;13.904;100.620;2023-08-17T07:43:06;100603.16;;;33.00;55.11
23223;BME280;11780;13.904;100.620;2023-08-17T07:45:36;100615.19;;;33.04;55.13
23223;BME280;11780;13.904;100.620;2023-08-17T07:48:07;100604.22;;;33.08;54.90
23223;BME280;11780;13.904;100.620;2023-08-17T07:50:37;100592.91;;;33.13;54.75
23223;BME280;11780;13.904;100.620;2023-08-17T07:53:07;100588.63;;;33.16;54.27
23223;BME280;11780;13.904;100.620;2023-08-17T07:55:38;100600.06;;;33.14;54.60
23223;BME280;11780;13.904;100.620;2023-08-17T07:58:08;100584.44;;;33.09;54.57
23223;BME280;11780;13.904;100.620;2023-08-17T08:00:39;100581.47;;;33.15;54.52
23223;BME280;11780;13.904;100.620;2023-08-17T08:03:09;100571.31;;;33.19;54.64
23223;BME280;11780;13.904;100.620;2023-08-17T08:05:39;100565.66;;;33.15;54.53
23223;BME280;11780;13.904;100.620;2023-08-17T08:08:10;100560.81;;;33.12;54.67
23223;BME280;11780;13.904;100.620;2023-08-17T08:10:40;100557.00;;;33.17;54.68
23223;BME280;11780;13.904;100.620;2023-08-17T08:13:11;100562.78;;;33.24;54.15
23223;BME280;11780;13.904;100.620;2023-08-17T08:15:43;100553.75;;;33.27;54.41
23223;BME280;11780;13.904;100.620;2023-08-17T08:18:13;100549.25;;;33.22;54.26
23223;BME280;11780;13.904;100.620;2023-08-17T08:20:44;100547.66;;;33.21;54.49
23223;BME280;11780;13.904;100.620;2023-08-17T08:23:14;100546.03;;;33.20;54.63
23223;BME280;11780;13.904;100.620;2023-08-17T08:25:45;100540.84;;;33.19;54.75
23223;BME280;11780;13.904;100.620;2023-08-17T08:28:15;100538.19;;;33.22;54.39
23223;BME280;11780;13.904;100.620;2023-08-17T08:30:47;100527.66;;;33.16;54.53
23223;BME280;11780;13.904;100.620;2023-08-17T08:33:17;100524.44;;;33.14;54.28
23223;BME280;11780;13.904;100.620;2023-08-17T08:35:48;100527.91;;;33.23;54.36
23223;BME280;11780;13.904;100.620;2023-08-17T08:38:18;100526.28;;;33.22;54.32
23223;BME280;11780;13.904;100.620;2023-08-17T08:40:49;100521.66;;;33.14;54.54
23223;BME280;11780;13.904;100.620;2023-08-17T08:43:19;100521.44;;;33.19;54.26
23223;BME280;11780;13.904;100.620;2023-08-17T08:45:51;100514.50;;;33.25;54.38
23223;BME280;11780;13.904;100.620;2023-08-17T08:48:22;100511.88;;;33.16;54.16
23223;BME280;11780;13.904;100.620;2023-08-17T08:50:55;100505.59;;;33.19;54.38
23223;BME280;11780;13.904;100.620;2023-08-17T08:53:37;100509.66;;;33.22;54.34
23223;BME280;11780;13.904;100.620;2023-08-17T08:56:11;100503.66;;;33.20;54.28
23223;BME280;11780;13.904;100.620;2023-08-17T08:58:45;100508.50;;;33.23;54.32
23223;BME280;11780;13.904;100.620;2023-08-17T09:01:21;100504.13;;;33.22;54.05
23223;BME280;11780;13.904;100.620;2023-08-17T09:03:52;100501.47;;;33.25;53.93
23223;BME280;11780;13.904;100.620;2023-08-17T09:06:25;100495.91;;;33.25;54.05
23223;BME280;11780;13.904;100.620;2023-08-17T09:08:57;100492.78;;;33.27;54.03
23223;BME280;11780;13.904;100.620;2023-08-17T09:11:29;100483.78;;;33.30;53.87
23223;BME280;11780;13.904;100.620;2023-08-17T09:14:00;100481.47;;;33.32;53.90
23223;BME280;11780;13.904;100.620;2023-08-17T09:16:30;100487.13;;;33.23;53.82
23223;BME280;11780;13.904;100.620;2023-08-17T09:19:01;100478.03;;;33.23;54.13
23223;BME280;11780;13.904;100.620;2023-08-17T09:21:32;100474.22;;;33.28;53.77
23223;BME280;11780;13.904;100.620;2023-08-17T09:24:03;100467.03;;;33.27;54.05
23223;BME280;11780;13.904;100.620;2023-08-17T09:26:33;100465.78;;;33.24;54.14
23223;BME280;11780;13.904;100.620;2023-08-17T09:29:20;100470.63;;;33.27;54.06
23223;BME280;11780;13.904;100.620;2023-08-17T09:31:50;100466.34;;;33.30;53.93
23223;BME280;11780;13.904;100.620;2023-08-17T09:34:21;100467.25;;;33.34;54.10
23223;BME280;11780;13.904;100.620;2023-08-17T09:36:51;100460.56;;;33.22;53.97
23223;BME280;11780;13.904;100.620;2023-08-17T09:39:22;100466.47;;;33.33;53.81
23223;BME280;11780;13.904;100.620;2023-08-17T09:41:54;100459.41;;;33.23;54.06
23223;BME280;11780;13.904;100.620;2023-08-17T09:44:25;100464.28;;;33.27;53.87
23223;BME280;11780;13.904;100.620;2023-08-17T14:52:48;100912.59;;;31.34;61.46
23223;BME280;11780;13.904;100.620;2023-08-17T14:55:19;100911.16;;;31.37;60.85
23223;BME280;11780;13.904;100.620;2023-08-17T14:57:49;100907.91;;;31.43;60.52
23223;BME280;11780;13.904;100.620;2023-08-17T15:00:20;100908.72;;;31.53;60.52
23223;BME280;11780;13.904;100.620;2023-08-17T15:02:50;100911.81;;;31.60;60.41
23223;BME280;11780;13.904;100.620;2023-08-17T15:05:21;100906.25;;;31.69;60.26
23223;BME280;11780;13.904;100.620;2023-08-17T15:07:55;100917.53;;;31.81;60.34
23223;BME280;11780;13.904;100.620;2023-08-17T15:10:26;100914.28;;;31.88;60.50
23223;BME280;11780;13.904;100.620;2023-08-17T15:12:58;100918.66;;;31.98;60.01
23223;BME280;11780;13.904;100.620;2023-08-17T15:15:28;100921.91;;;32.00;60.31
23223;BME280;11780;13.904;100.620;2023-08-17T15:17:58;100918.97;;;32.05;60.13
23223;BME280;11780;13.904;100.620;2023-08-17T15:20:29;100923.34;;;32.06;59.63
23223;BME280;11780;13.904;100.620;2023-08-17T15:23:00;100922.56;;;32.06;59.58
23223;BME280;11780;13.904;100.620;2023-08-17T15:25:31;100925.97;;;32.11;59.17
23223;BME280;11780;13.904;100.620;2023-08-17T15:28:02;100921.56;;;32.10;58.68
23223;BME280;11780;13.904;100.620;2023-08-17T15:30:32;100929.38;;;32.17;58.54
23223;BME280;11780;13.904;100.620;2023-08-17T15:33:02;100926.75;;;32.20;58.70
23223;BME280;11780;13.904;100.620;2023-08-17T15:35:32;100931.78;;;32.18;59.40
23223;BME280;11780;13.904;100.620;2023-08-17T15:38:03;100930.66;;;32.19;58.98
23223;BME280;11780;13.904;100.620;2023-08-17T15:40:33;100923.50;;;32.18;59.12
23223;BME280;11780;13.904;100.620;2023-08-17T15:43:04;100931.97;;;32.22;58.65
23223;BME280;11780;13.904;100.620;2023-08-17T15:45:34;100924.47;;;32.23;58.27
23223;BME280;11780;13.904;100.620;2023-08-17T15:48:04;100920.06;;;32.22;58.46
23223;BME280;11780;13.904;100.620;2023-08-17T15:50:35;100929.03;;;32.18;59.21
23223;BME280;11780;13.904;100.620;2023-08-17T15:53:05;100932.78;;;32.23;59.00
23223;BME280;11780;13.904;100.620;2023-08-17T15:55:38;100931.16;;;32.22;58.84
23223;BME280;11780;13.904;100.620;2023-08-17T15:58:09;100938.66;;;32.21;58.92
23223;BME280;11780;13.904;100.620;2023-08-17T16:00:39;100936.38;;;32.23;58.83
23223;BME280;11780;13.904;100.620;2023-08-17T16:03:10;100947.63;;;32.27;58.79
23223;BME280;11780;13.904;100.620;2023-08-17T16:05:40;100944.34;;;32.25;58.74
23223;BME280;11780;13.904;100.620;2023-08-17T16:08:10;100946.78;;;32.26;58.79
23223;BME280;11780;13.904;100.620;2023-08-17T16:10:41;100943.69;;;32.19;59.19
23223;BME280;11780;13.904;100.620;2023-08-17T16:13:12;100944.34;;;32.25;58.86
23223;BME280;11780;13.904;100.620;2023-08-17T16:15:42;100946.00;;;32.26;58.92
23223;BME280;11780;13.904;100.620;2023-08-17T16:18:19;100941.25;;;32.26;58.85
23223;BME280;11780;13.904;100.620;2023-08-17T16:20:49;100937.97;;;32.24;58.84
23223;BME280;11780;13.904;100.620;2023-08-17T16:23:19;100934.75;;;32.22;58.82
23223;BME280;11780;13.904;100.620;2023-08-17T16:25:50;100933.59;;;32.23;58.84
23223;BME280;11780;13.904;100.620;2023-08-17T16:28:20;100935.53;;;32.23;58.50
23223;BME280;11780;13.904;100.620;2023-08-17T16:30:51;100934.41;;;32.24;58.19
23223;BME280;11780;13.904;100.620;2023-08-17T16:33:21;100938.78;;;32.25;57.83
23223;BME280;11780;13.904;100.620;2023-08-17T16:35:51;100927.72;;;32.25;57.87
23223;BME280;11780;13.904;100.620;2023-08-17T16:38:22;100930.34;;;32.21;58.05
23223;BME280;11780;13.904;100.620;2023-08-17T16:40:54;100935.53;;;32.23;57.57
23223;BME280;11780;13.904;100.620;2023-08-17T16:43:24;100937.19;;;32.15;57.85
23223;BME280;11780;13.904;100.620;2023-08-17T16:45:54;100926.91;;;32.24;58.03
23223;BME280;11780;13.904;100.620;2023-08-17T16:48:24;100936.69;;;32.22;57.61
23223;BME280;11780;13.904;100.620;2023-08-17T16:50:55;100931.00;;;32.18;57.84
23223;BME280;11780;13.904;100.620;2023-08-17T16:53:25;100937.50;;;32.22;58.02
23223;BME280;11780;13.904;100.620;2023-08-17T16:55:57;100931.66;;;32.15;57.87
23223;BME280;11780;13.904;100.620;2023-08-17T16:58:28;100916.66;;;32.16;58.13
23223;BME280;11780;13.904;100.620;2023-08-17T17:00:58;100917.81;;;32.15;57.77
23223;BME280;11780;13.904;100.620;2023-08-17T17:03:32;100922.53;;;32.14;57.69
23223;BME280;11780;13.904;100.620;2023-08-17T17:06:02;100906.88;;;32.18;57.95
23223;BME280;11780;13.904;100.620;2023-08-17T17:08:32;100909.38;;;32.11;57.92
23223;BME280;11780;13.904;100.620;2023-08-17T17:11:03;100913.56;;;32.17;58.20
23223;BME280;11780;13.904;100.620;2023-08-17T17:13:33;100909.84;;;32.13;58.02
23223;BME280;11780;13.904;100.620;2023-08-17T17:16:04;100910.66;;;32.14;58.08
23223;BME280;11780;13.904;100.620;2023-08-17T17:18:35;100901.22;;;32.15;58.24
23223;BME280;11780;13.904;100.620;2023-08-17T17:21:10;100891.13;;;32.10;58.09
23223;BME280;11780;13.904;100.620;2023-08-17T17:23:41;100893.72;;;32.15;57.90
23223;BME280;11780;13.904;100.620;2023-08-17T17:26:11;100891.91;;;32.19;58.15
23223;BME280;11780;13.904;100.620;2023-08-17T17:28:41;100890.97;;;32.07;58.12
23223;BME280;11780;13.904;100.620;2023-08-17T17:31:12;100888.19;;;32.15;58.05
23223;BME280;11780;13.904;100.620;2023-08-17T17:33:42;100885.59;;;32.10;58.43
23223;BME280;11780;13.904;100.620;2023-08-17T17:36:12;100882.31;;;32.17;57.76
23223;BME280;11780;13.904;100.620;2023-08-17T17:38:43;100882.66;;;32.15;57.82
23223;BME280;11780;13.904;100.620;2023-08-17T17:41:13;100885.44;;;32.15;58.45
23223;BME280;11780;13.904;100.620;2023-08-17T17:43:44;100884.13;;;32.13;58.04
23223;BME280;11780;13.904;100.620;2023-08-17T17:46:14;100875.50;;;32.14;58.18
23223;BME280;11780;13.904;100.620;2023-08-17T17:48:45;100869.47;;;32.12;57.94
23223;BME280;11780;13.904;100.620;2023-08-17T17:51:15;100871.41;;;32.12;58.35
23223;BME280;11780;13.904;100.620;2023-08-17T17:53:47;100858.41;;;32.12;58.31
23223;BME280;11780;13.904;100.620;2023-08-17T17:56:17;100856.44;;;32.13;58.20
23223;BME280;11780;13.904;100.620;2023-08-17T17:58:47;100854.69;;;32.08;58.00
23223;BME280;11780;13.904;100.620;2023-08-17T18:01:17;100845.72;;;32.11;57.94